sensor_id;sensor_type;location;lat;lon;timestamp;P1;durP1;ratioP1;P2;durP2;ratioP2
41233;SDS011;26968;42.686;23.352;2022-07-19T00:01:40;8.20;;;5.15;;
41233;SDS011;26968;42.686;23.352;2022-07-19T00:04:06;9.57;;;5.28;;
41233;SDS011;26968;42.686;23.352;2022-07-19T00:06:31;12.13;;;4.40;;
41233;SDS011;26968;42.686;23.352;2022-07-19T00:08:57;14.70;;;4.43;;
41233;SDS011;26968;42.686;23.352;2022-07-19T00:11:23;7.50;;;3.53;;
41233;SDS011;26968;42.686;23.352;2022-07-19T00:13:49;8.63;;;3.42;;
41233;SDS011;26968;42.686;23.352;2022-07-19T00:16:14;7.78;;;3.17;;
41233;SDS011;26968;42.686;23.352;2022-07-19T00:18:40;11.80;;;3.53;;
41233;SDS011;26968;42.686;23.352;2022-07-19T00:21:06;13.85;;;3.28;;
41233;SDS011;26968;42.686;23.352;2022-07-19T00:23:31;11.40;;;3.50;;
41233;SDS011;26968;42.686;23.352;2022-07-19T00:25:57;6.55;;;2.88;;
41233;SDS011;26968;42.686;23.352;2022-07-19T00:28:22;6.85;;;2.92;;
41233;SDS011;26968;42.686;23.352;2022-07-19T00:30:48;7.15;;;2.90;;
41233;SDS011;26968;42.686;23.352;2022-07-19T00:33:13;10.23;;;3.03;;
41233;SDS011;26968;42.686;23.352;2022-07-19T00:35:39;11.00;;;3.10;;
41233;SDS011;26968;42.686;23.352;2022-07-19T00:38:08;7.07;;;3.63;;
41233;SDS011;26968;42.686;23.352;2022-07-19T00:40:36;5.68;;;3.08;;
41233;SDS011;26968;42.686;23.352;2022-07-19T00:43:02;9.63;;;3.60;;
41233;SDS011;26968;42.686;23.352;2022-07-19T00:45:28;10.43;;;3.38;;
41233;SDS011;26968;42.686;23.352;2022-07-19T00:47:54;9.55;;;3.50;;
41233;SDS011;26968;42.686;23.352;2022-07-19T00:50:20;6.13;;;3.17;;
41233;SDS011;26968;42.686;23.352;2022-07-19T00:52:46;8.13;;;3.08;;
41233;SDS011;26968;42.686;23.352;2022-07-19T00:55:16;8.38;;;3.40;;
41233;SDS011;26968;42.686;23.352;2022-07-19T00:57:43;9.93;;;3.00;;
41233;SDS011;26968;42.686;23.352;2022-07-19T01:00:10;9.48;;;3.53;;
41233;SDS011;26968;42.686;23.352;2022-07-19T01:02:36;15.23;;;3.58;;
41233;SDS011;26968;42.686;23.352;2022-07-19T01:05:03;6.93;;;3.17;;
41233;SDS011;26968;42.686;23.352;2022-07-19T01:07:29;6.13;;;3.25;;
41233;SDS011;26968;42.686;23.352;2022-07-19T01:09:54;5.00;;;2.55;;
41233;SDS011;26968;42.686;23.352;2022-07-19T01:12:20;5.45;;;2.60;;
41233;SDS011;26968;42.686;23.352;2022-07-19T01:14:47;10.93;;;2.60;;
41233;SDS011;26968;42.686;23.352;2022-07-19T01:17:13;8.90;;;3.50;;
41233;SDS011;26968;42.686;23.352;2022-07-19T01:19:41;6.57;;;2.80;;
41233;SDS011;26968;42.686;23.352;2022-07-19T01:22:07;7.88;;;2.92;;
41233;SDS011;26968;42.686;23.352;2022-07-19T01:24:32;11.95;;;3.15;;
41233;SDS011;26968;42.686;23.352;2022-07-19T01:26:57;7.00;;;2.67;;
41233;SDS011;26968;42.686;23.352;2022-07-19T01:29:23;4.53;;;2.78;;
41233;SDS011;26968;42.686;23.352;2022-07-19T01:31:48;8.90;;;2.70;;
41233;SDS011;26968;42.686;23.352;2022-07-19T01:34:14;11.38;;;3.22;;
41233;SDS011;26968;42.686;23.352;2022-07-19T01:36:39;11.68;;;3.00;;
41233;SDS011;26968;42.686;23.352;2022-07-19T01:39:05;7.10;;;2.42;;
41233;SDS011;26968;42.686;23.352;2022-07-19T01:41:30;6.20;;;2.60;;
41233;SDS011;26968;42.686;23.352;2022-07-19T01:43:56;6.70;;;2.28;;
41233;SDS011;26968;42.686;23.352;2022-07-19T01:46:21;6.20;;;2.13;;
41233;SDS011;26968;42.686;23.352;2022-07-19T01:48:47;8.02;;;2.53;;
41233;SDS011;26968;42.686;23.352;2022-07-19T01:51:12;9.52;;;2.20;;
41233;SDS011;26968;42.686;23.352;2022-07-19T01:53:37;4.93;;;2.15;;
41233;SDS011;26968;42.686;23.352;2022-07-19T01:56:03;7.40;;;2.88;;
41233;SDS011;26968;42.686;23.352;2022-07-19T01:58:29;6.97;;;2.20;;
41233;SDS011;26968;42.686;23.352;2022-07-19T02:00:55;9.77;;;2.40;;
41233;SDS011;26968;42.686;23.352;2022-07-19T02:03:20;4.95;;;1.88;;
41233;SDS011;26968;42.686;23.352;2022-07-19T02:05:46;6.25;;;2.20;;
41233;SDS011;26968;42.686;23.352;2022-07-19T02:08:11;5.18;;;2.60;;
41233;SDS011;26968;42.686;23.352;2022-07-19T02:10:37;5.72;;;2.90;;
41233;SDS011;26968;42.686;23.352;2022-07-19T02:13:02;6.90;;;2.60;;
41233;SDS011;26968;42.686;23.352;2022-07-19T02:15:28;4.50;;;2.30;;
41233;SDS011;26968;42.686;23.352;2022-07-19T02:17:53;6.88;;;2.30;;
41233;SDS011;26968;42.686;23.352;2022-07-19T02:20:19;9.77;;;2.60;;
41233;SDS011;26968;42.686;23.352;2022-07-19T02:22:44;6.13;;;2.60;;
41233;SDS011;26968;42.686;23.352;2022-07-19T02:25:10;7.15;;;2.95;;
41233;SDS011;26968;42.686;23.352;2022-07-19T02:27:36;9.48;;;2.78;;
41233;SDS011;26968;42.686;23.352;2022-07-19T02:30:02;8.45;;;2.65;;
41233;SDS011;26968;42.686;23.352;2022-07-19T02:32:28;9.50;;;2.95;;
41233;SDS011;26968;42.686;23.352;2022-07-19T02:34:54;10.60;;;2.53;;
41233;SDS011;26968;42.686;23.352;2022-07-19T02:37:19;8.25;;;2.42;;
41233;SDS011;26968;42.686;23.352;2022-07-19T02:39:45;6.57;;;2.75;;
41233;SDS011;26968;42.686;23.352;2022-07-19T02:42:10;7.68;;;2.78;;
41233;SDS011;26968;42.686;23.352;2022-07-19T02:44:35;4.95;;;2.47;;
41233;SDS011;26968;42.686;23.352;2022-07-19T02:47:01;10.00;;;2.83;;
41233;SDS011;26968;42.686;23.352;2022-07-19T02:49:26;6.90;;;2.75;;
41233;SDS011;26968;42.686;23.352;2022-07-19T02:51:52;10.40;;;3.08;;
41233;SDS011;26968;42.686;23.352;2022-07-19T02:54:17;16.85;;;3.33;;
41233;SDS011;26968;42.686;23.352;2022-07-19T02:56:43;9.10;;;3.13;;
41233;SDS011;26968;42.686;23.352;2022-07-19T02:59:08;10.07;;;3.10;;
41233;SDS011;26968;42.686;23.352;2022-07-19T03:01:34;11.07;;;3.40;;
41233;SDS011;26968;42.686;23.352;2022-07-19T03:03:59;11.65;;;3.08;;
41233;SDS011;26968;42.686;23.352;2022-07-19T03:06:25;11.40;;;3.40;;
41233;SDS011;26968;42.686;23.352;2022-07-19T03:08:51;8.75;;;3.40;;
41233;SDS011;26968;42.686;23.352;2022-07-19T03:11:17;9.10;;;3.50;;
41233;SDS011;26968;42.686;23.352;2022-07-19T03:13:42;8.40;;;3.47;;
41233;SDS011;26968;42.686;23.352;2022-07-19T03:16:08;15.60;;;3.55;;
41233;SDS011;26968;42.686;23.352;2022-07-19T03:18:33;10.68;;;3.90;;
41233;SDS011;26968;42.686;23.352;2022-07-19T03:20:59;8.32;;;3.83;;
41233;SDS011;26968;42.686;23.352;2022-07-19T03:23:32;10.13;;;3.85;;
41233;SDS011;26968;42.686;23.352;2022-07-19T03:25:58;9.48;;;4.18;;
41233;SDS011;26968;42.686;23.352;2022-07-19T03:28:24;8.63;;;3.63;;
41233;SDS011;26968;42.686;23.352;2022-07-19T03:30:50;8.80;;;4.22;;
41233;SDS011;26968;42.686;23.352;2022-07-19T03:33:15;11.45;;;4.10;;
41233;SDS011;26968;42.686;23.352;2022-07-19T03:35:41;12.45;;;4.95;;
41233;SDS011;26968;42.686;23.352;2022-07-19T03:38:09;10.23;;;4.22;;
41233;SDS011;26968;42.686;23.352;2022-07-19T03:40:35;8.48;;;3.78;;
41233;SDS011;26968;42.686;23.352;2022-07-19T03:43:01;13.98;;;4.72;;
41233;SDS011;26968;42.686;23.352;2022-07-19T03:45:26;10.30;;;4.45;;
41233;SDS011;26968;42.686;23.352;2022-07-19T03:47:52;7.35;;;4.05;;
41233;SDS011;26968;42.686;23.352;2022-07-19T03:50:17;8.00;;;4.00;;
41233;SDS011;26968;42.686;23.352;2022-07-19T03:52:42;9.75;;;4.13;;
41233;SDS011;26968;42.686;23.352;2022-07-19T03:55:08;9.55;;;4.00;;
41233;SDS011;26968;42.686;23.352;2022-07-19T03:57:33;16.27;;;4.30;;
41233;SDS011;26968;42.686;23.352;2022-07-19T03:59:59;10.55;;;4.22;;
41233;SDS011;26968;42.686;23.352;2022-07-19T04:02:24;9.77;;;3.75;;
41233;SDS011;26968;42.686;23.352;2022-07-19T04:04:50;11.98;;;3.90;;
41233;SDS011;26968;42.686;23.352;2022-07-19T04:07:15;6.75;;;3.47;;
41233;SDS011;26968;42.686;23.352;2022-07-19T04:09:41;8.65;;;3.40;;
41233;SDS011;26968;42.686;23.352;2022-07-19T04:12:06;9.38;;;3.70;;
41233;SDS011;26968;42.686;23.352;2022-07-19T04:14:32;6.22;;;3.42;;
41233;SDS011;26968;42.686;23.352;2022-07-19T04:16:57;12.77;;;3.55;;
41233;SDS011;26968;42.686;23.352;2022-07-19T04:19:23;11.20;;;4.15;;
41233;SDS011;26968;42.686;23.352;2022-07-19T04:21:48;6.43;;;3.17;;
41233;SDS011;26968;42.686;23.352;2022-07-19T04:24:14;7.93;;;3.50;;
41233;SDS011;26968;42.686;23.352;2022-07-19T04:26:39;12.73;;;3.70;;
41233;SDS011;26968;42.686;23.352;2022-07-19T04:29:04;10.88;;;4.10;;
41233;SDS011;26968;42.686;23.352;2022-07-19T04:31:30;12.13;;;4.40;;
41233;SDS011;26968;42.686;23.352;2022-07-19T04:33:55;11.60;;;4.75;;
41233;SDS011;26968;42.686;23.352;2022-07-19T04:36:21;8.18;;;4.55;;
41233;SDS011;26968;42.686;23.352;2022-07-19T04:38:46;13.50;;;4.65;;
41233;SDS011;26968;42.686;23.352;2022-07-19T04:41:12;12.93;;;4.68;;
41233;SDS011;26968;42.686;23.352;2022-07-19T04:43:37;14.57;;;5.15;;
41233;SDS011;26968;42.686;23.352;2022-07-19T04:46:02;13.35;;;4.85;;
41233;SDS011;26968;42.686;23.352;2022-07-19T04:48:28;13.48;;;5.03;;
41233;SDS011;26968;42.686;23.352;2022-07-19T04:50:54;13.40;;;5.03;;
41233;SDS011;26968;42.686;23.352;2022-07-19T04:53:19;13.07;;;4.35;;
41233;SDS011;26968;42.686;23.352;2022-07-19T04:55:45;7.32;;;3.90;;
41233;SDS011;26968;42.686;23.352;2022-07-19T04:58:10;8.18;;;3.33;;
41233;SDS011;26968;42.686;23.352;2022-07-19T05:00:36;4.75;;;2.80;;
41233;SDS011;26968;42.686;23.352;2022-07-19T05:03:01;8.70;;;3.00;;
41233;SDS011;26968;42.686;23.352;2022-07-19T05:05:27;7.88;;;2.70;;
41233;SDS011;26968;42.686;23.352;2022-07-19T05:07:52;9.60;;;2.63;;
41233;SDS011;26968;42.686;23.352;2022-07-19T05:10:18;9.30;;;3.13;;
41233;SDS011;26968;42.686;23.352;2022-07-19T05:12:43;12.60;;;3.15;;
41233;SDS011;26968;42.686;23.352;2022-07-19T05:15:09;9.57;;;2.70;;
41233;SDS011;26968;42.686;23.352;2022-07-19T05:17:35;6.72;;;2.70;;
41233;SDS011;26968;42.686;23.352;2022-07-19T05:20:02;4.03;;;2.10;;
41233;SDS011;26968;42.686;23.352;2022-07-19T05:22:28;13.93;;;2.95;;
41233;SDS011;26968;42.686;23.352;2022-07-19T05:24:54;13.20;;;3.53;;
41233;SDS011;26968;42.686;23.352;2022-07-19T05:27:21;16.98;;;3.50;;
41233;SDS011;26968;42.686;23.352;2022-07-19T05:29:47;12.38;;;3.35;;
41233;SDS011;26968;42.686;23.352;2022-07-19T05:32:12;4.68;;;2.35;;
41233;SDS011;26968;42.686;23.352;2022-07-19T05:34:38;6.45;;;2.53;;
41233;SDS011;26968;42.686;23.352;2022-07-19T05:37:04;10.48;;;2.17;;
41233;SDS011;26968;42.686;23.352;2022-07-19T05:39:30;5.97;;;2.10;;
41233;SDS011;26968;42.686;23.352;2022-07-19T05:41:55;5.25;;;2.20;;
41233;SDS011;26968;42.686;23.352;2022-07-19T05:44:20;10.80;;;3.20;;
41233;SDS011;26968;42.686;23.352;2022-07-19T05:46:46;11.90;;;3.00;;
41233;SDS011;26968;42.686;23.352;2022-07-19T05:49:12;4.78;;;2.03;;
41233;SDS011;26968;42.686;23.352;2022-07-19T05:51:38;5.35;;;2.20;;
41233;SDS011;26968;42.686;23.352;2022-07-19T05:54:03;9.50;;;2.33;;
41233;SDS011;26968;42.686;23.352;2022-07-19T05:56:29;8.43;;;2.30;;
41233;SDS011;26968;42.686;23.352;2022-07-19T05:58:55;8.68;;;2.65;;
41233;SDS011;26968;42.686;23.352;2022-07-19T06:01:20;11.65;;;3.15;;
41233;SDS011;26968;42.686;23.352;2022-07-19T06:03:56;5.50;;;2.45;;
41233;SDS011;26968;42.686;23.352;2022-07-19T06:06:23;9.27;;;2.97;;
41233;SDS011;26968;42.686;23.352;2022-07-19T06:12:02;7.35;;;2.78;;
41233;SDS011;26968;42.686;23.352;2022-07-19T06:14:29;7.00;;;2.78;;
41233;SDS011;26968;42.686;23.352;2022-07-19T06:16:56;9.88;;;3.60;;
41233;SDS011;26968;42.686;23.352;2022-07-19T06:19:22;8.13;;;2.83;;
41233;SDS011;26968;42.686;23.352;2022-07-19T06:21:48;11.57;;;2.92;;
41233;SDS011;26968;42.686;23.352;2022-07-19T06:24:18;14.48;;;2.90;;
41233;SDS011;26968;42.686;23.352;2022-07-19T06:26:43;6.45;;;2.83;;
41233;SDS011;26968;42.686;23.352;2022-07-19T06:29:09;10.23;;;2.15;;
41233;SDS011;26968;42.686;23.352;2022-07-19T06:31:35;8.88;;;2.55;;
41233;SDS011;26968;42.686;23.352;2022-07-19T06:34:05;12.98;;;2.72;;
41233;SDS011;26968;42.686;23.352;2022-07-19T06:36:31;7.55;;;2.20;;
41233;SDS011;26968;42.686;23.352;2022-07-19T06:38:59;10.38;;;2.42;;
41233;SDS011;26968;42.686;23.352;2022-07-19T06:41:28;8.48;;;3.03;;
41233;SDS011;26968;42.686;23.352;2022-07-19T06:43:53;11.48;;;3.33;;
41233;SDS011;26968;42.686;23.352;2022-07-19T06:46:19;6.95;;;2.95;;
41233;SDS011;26968;42.686;23.352;2022-07-19T06:48:45;13.38;;;4.07;;
41233;SDS011;26968;42.686;23.352;2022-07-19T06:51:10;8.27;;;3.00;;
41233;SDS011;26968;42.686;23.352;2022-07-19T06:53:37;10.25;;;2.80;;
41233;SDS011;26968;42.686;23.352;2022-07-19T06:56:05;12.63;;;2.60;;
41233;SDS011;26968;42.686;23.352;2022-07-19T06:58:34;7.53;;;2.40;;
41233;SDS011;26968;42.686;23.352;2022-07-19T07:00:59;9.25;;;2.53;;
41233;SDS011;26968;42.686;23.352;2022-07-19T07:03:30;13.25;;;3.20;;
41233;SDS011;26968;42.686;23.352;2022-07-19T07:05:56;8.68;;;2.65;;
41233;SDS011;26968;42.686;23.352;2022-07-19T07:08:21;11.57;;;2.45;;
41233;SDS011;26968;42.686;23.352;2022-07-19T07:10:47;12.55;;;2.72;;
41233;SDS011;26968;42.686;23.352;2022-07-19T07:13:13;4.93;;;2.53;;
41233;SDS011;26968;42.686;23.352;2022-07-19T07:15:40;7.03;;;2.80;;
41233;SDS011;26968;42.686;23.352;2022-07-19T07:20:34;11.90;;;2.60;;
41233;SDS011;26968;42.686;23.352;2022-07-19T07:23:00;6.30;;;2.30;;
41233;SDS011;26968;42.686;23.352;2022-07-19T07:25:26;9.25;;;2.85;;
41233;SDS011;26968;42.686;23.352;2022-07-19T07:27:52;9.38;;;2.60;;
41233;SDS011;26968;42.686;23.352;2022-07-19T07:30:17;9.10;;;2.58;;
41233;SDS011;26968;42.686;23.352;2022-07-19T07:32:45;6.30;;;2.45;;
41233;SDS011;26968;42.686;23.352;2022-07-19T07:35:11;9.43;;;2.70;;
41233;SDS011;26968;42.686;23.352;2022-07-19T07:37:39;7.88;;;2.65;;
41233;SDS011;26968;42.686;23.352;2022-07-19T07:40:06;7.43;;;2.78;;
41233;SDS011;26968;42.686;23.352;2022-07-19T07:42:32;4.45;;;2.28;;
41233;SDS011;26968;42.686;23.352;2022-07-19T07:44:59;3.05;;;2.38;;
41233;SDS011;26968;42.686;23.352;2022-07-19T07:47:26;6.63;;;2.50;;
41233;SDS011;26968;42.686;23.352;2022-07-19T07:49:51;3.30;;;2.30;;
41233;SDS011;26968;42.686;23.352;2022-07-19T07:52:17;7.70;;;2.63;;
41233;SDS011;26968;42.686;23.352;2022-07-19T07:54:43;10.52;;;2.83;;
41233;SDS011;26968;42.686;23.352;2022-07-19T07:57:09;9.18;;;2.42;;
41233;SDS011;26968;42.686;23.352;2022-07-19T07:59:35;9.18;;;2.38;;
41233;SDS011;26968;42.686;23.352;2022-07-19T08:02:00;10.85;;;2.60;;
41233;SDS011;26968;42.686;23.352;2022-07-19T08:04:28;6.57;;;2.10;;
41233;SDS011;26968;42.686;23.352;2022-07-19T08:06:54;5.03;;;2.25;;
41233;SDS011;26968;42.686;23.352;2022-07-19T08:09:26;6.95;;;2.67;;
41233;SDS011;26968;42.686;23.352;2022-07-19T08:11:52;5.80;;;2.17;;
41233;SDS011;26968;42.686;23.352;2022-07-19T08:14:20;6.55;;;2.05;;
41233;SDS011;26968;42.686;23.352;2022-07-19T08:16:46;4.70;;;2.50;;
41233;SDS011;26968;42.686;23.352;2022-07-19T08:19:15;7.82;;;2.67;;
41233;SDS011;26968;42.686;23.352;2022-07-19T08:21:40;6.90;;;2.67;;
41233;SDS011;26968;42.686;23.352;2022-07-19T08:24:06;3.15;;;2.33;;
41233;SDS011;26968;42.686;23.352;2022-07-19T08:26:31;7.57;;;2.70;;
41233;SDS011;26968;42.686;23.352;2022-07-19T08:28:57;9.70;;;2.38;;
41233;SDS011;26968;42.686;23.352;2022-07-19T08:31:23;4.47;;;2.35;;
41233;SDS011;26968;42.686;23.352;2022-07-19T08:33:55;7.38;;;2.40;;
41233;SDS011;26968;42.686;23.352;2022-07-19T08:36:23;10.15;;;3.00;;
41233;SDS011;26968;42.686;23.352;2022-07-19T08:38:49;6.60;;;2.65;;
41233;SDS011;26968;42.686;23.352;2022-07-19T08:41:15;8.25;;;2.85;;
41233;SDS011;26968;42.686;23.352;2022-07-19T08:43:41;8.23;;;2.50;;
41233;SDS011;26968;42.686;23.352;2022-07-19T08:46:07;8.52;;;2.75;;
41233;SDS011;26968;42.686;23.352;2022-07-19T08:48:33;5.18;;;2.00;;
41233;SDS011;26968;42.686;23.352;2022-07-19T08:51:02;3.55;;;1.90;;
41233;SDS011;26968;42.686;23.352;2022-07-19T08:53:51;5.90;;;2.13;;
41233;SDS011;26968;42.686;23.352;2022-07-19T08:56:17;4.93;;;2.30;;
41233;SDS011;26968;42.686;23.352;2022-07-19T08:59:02;5.53;;;2.20;;
41233;SDS011;26968;42.686;23.352;2022-07-19T09:01:28;7.13;;;2.47;;
41233;SDS011;26968;42.686;23.352;2022-07-19T09:04:13;10.68;;;2.38;;
41233;SDS011;26968;42.686;23.352;2022-07-19T09:06:46;5.88;;;2.13;;
41233;SDS011;26968;42.686;23.352;2022-07-19T09:09:14;6.63;;;2.10;;
41233;SDS011;26968;42.686;23.352;2022-07-19T09:11:45;7.70;;;2.30;;
41233;SDS011;26968;42.686;23.352;2022-07-19T09:14:26;9.57;;;2.70;;
41233;SDS011;26968;42.686;23.352;2022-07-19T09:17:03;11.15;;;2.70;;
41233;SDS011;26968;42.686;23.352;2022-07-19T09:19:32;6.28;;;2.30;;
41233;SDS011;26968;42.686;23.352;2022-07-19T09:22:09;10.55;;;2.42;;
41233;SDS011;26968;42.686;23.352;2022-07-19T09:24:38;7.07;;;2.53;;
41233;SDS011;26968;42.686;23.352;2022-07-19T09:27:15;7.45;;;1.98;;
41233;SDS011;26968;42.686;23.352;2022-07-19T09:29:44;4.63;;;2.00;;
41233;SDS011;26968;42.686;23.352;2022-07-19T09:32:11;2.22;;;1.90;;
41233;SDS011;26968;42.686;23.352;2022-07-19T09:34:39;3.03;;;1.95;;
41233;SDS011;26968;42.686;23.352;2022-07-19T09:37:37;6.40;;;1.95;;
41233;SDS011;26968;42.686;23.352;2022-07-19T09:40:05;4.57;;;1.83;;
41233;SDS011;26968;42.686;23.352;2022-07-19T09:42:42;12.23;;;2.42;;
41233;SDS011;26968;42.686;23.352;2022-07-19T09:45:10;3.92;;;2.03;;
41233;SDS011;26968;42.686;23.352;2022-07-19T09:47:44;5.95;;;2.00;;
41233;SDS011;26968;42.686;23.352;2022-07-19T09:50:15;2.95;;;1.95;;
41233;SDS011;26968;42.686;23.352;2022-07-19T09:52:43;4.13;;;2.10;;
41233;SDS011;26968;42.686;23.352;2022-07-19T09:55:10;3.08;;;2.25;;
41233;SDS011;26968;42.686;23.352;2022-07-19T09:57:40;7.03;;;2.58;;
41233;SDS011;26968;42.686;23.352;2022-07-19T10:02:35;11.35;;;2.80;;
41233;SDS011;26968;42.686;23.352;2022-07-19T10:05:02;6.30;;;2.38;;
41233;SDS011;26968;42.686;23.352;2022-07-19T10:07:30;6.50;;;2.30;;
41233;SDS011;26968;42.686;23.352;2022-07-19T10:09:57;3.10;;;1.80;;
41233;SDS011;26968;42.686;23.352;2022-07-19T10:12:27;6.95;;;2.28;;
41233;SDS011;26968;42.686;23.352;2022-07-19T10:14:54;10.13;;;2.80;;
41233;SDS011;26968;42.686;23.352;2022-07-19T10:20:16;14.10;;;3.00;;
41233;SDS011;26968;42.686;23.352;2022-07-19T10:22:44;4.25;;;2.38;;
41233;SDS011;26968;42.686;23.352;2022-07-19T10:32:32;4.80;;;2.25;;
41233;SDS011;26968;42.686;23.352;2022-07-19T10:37:54;3.45;;;2.03;;
41233;SDS011;26968;42.686;23.352;2022-07-19T10:43:10;5.55;;;2.40;;
41233;SDS011;26968;42.686;23.352;2022-07-19T10:45:37;3.47;;;1.98;;
41233;SDS011;26968;42.686;23.352;2022-07-19T10:56:19;8.00;;;2.40;;
41233;SDS011;26968;42.686;23.352;2022-07-19T10:59:00;5.30;;;1.80;;
41233;SDS011;26968;42.686;23.352;2022-07-19T11:01:28;6.03;;;1.90;;
41233;SDS011;26968;42.686;23.352;2022-07-19T11:04:23;4.65;;;1.45;;
41233;SDS011;26968;42.686;23.352;2022-07-19T11:09:55;5.47;;;2.10;;
41233;SDS011;26968;42.686;23.352;2022-07-19T11:12:23;3.92;;;1.77;;
41233;SDS011;26968;42.686;23.352;2022-07-19T11:15:00;6.18;;;1.73;;
41233;SDS011;26968;42.686;23.352;2022-07-19T11:17:30;5.80;;;2.35;;
41233;SDS011;26968;42.686;23.352;2022-07-19T11:20:14;8.40;;;2.10;;
41233;SDS011;26968;42.686;23.352;2022-07-19T11:22:44;7.28;;;2.15;;
41233;SDS011;26968;42.686;23.352;2022-07-19T11:25:12;5.55;;;2.30;;
41233;SDS011;26968;42.686;23.352;2022-07-19T11:27:40;2.03;;;1.60;;
41233;SDS011;26968;42.686;23.352;2022-07-19T11:30:09;4.38;;;2.10;;
41233;SDS011;26968;42.686;23.352;2022-07-19T11:32:36;2.97;;;2.10;;
41233;SDS011;26968;42.686;23.352;2022-07-19T11:35:06;6.82;;;1.90;;
41233;SDS011;26968;42.686;23.352;2022-07-19T11:39:59;6.75;;;2.10;;
41233;SDS011;26968;42.686;23.352;2022-07-19T11:42:36;9.25;;;2.03;;
41233;SDS011;26968;42.686;23.352;2022-07-19T11:47:37;3.60;;;1.98;;
41233;SDS011;26968;42.686;23.352;2022-07-19T11:50:06;4.57;;;2.10;;
41233;SDS011;26968;42.686;23.352;2022-07-19T11:52:54;3.60;;;2.38;;
41233;SDS011;26968;42.686;23.352;2022-07-19T11:55:25;6.72;;;1.90;;
41233;SDS011;26968;42.686;23.352;2022-07-19T11:57:52;3.40;;;1.80;;
41233;SDS011;26968;42.686;23.352;2022-07-19T12:00:19;6.05;;;2.17;;
41233;SDS011;26968;42.686;23.352;2022-07-19T12:02:52;4.60;;;1.80;;
41233;SDS011;26968;42.686;23.352;2022-07-19T12:05:29;16.15;;;2.75;;
41233;SDS011;26968;42.686;23.352;2022-07-19T12:08:00;3.50;;;1.98;;
41233;SDS011;26968;42.686;23.352;2022-07-19T12:10:34;2.78;;;1.60;;
41233;SDS011;26968;42.686;23.352;2022-07-19T12:13:05;4.90;;;1.88;;
41233;SDS011;26968;42.686;23.352;2022-07-19T12:15:45;4.18;;;2.00;;
41233;SDS011;26968;42.686;23.352;2022-07-19T12:18:19;7.78;;;1.85;;
41233;SDS011;26968;42.686;23.352;2022-07-19T12:23:41;10.20;;;2.08;;
41233;SDS011;26968;42.686;23.352;2022-07-19T12:26:07;7.50;;;1.70;;
41233;SDS011;26968;42.686;23.352;2022-07-19T12:28:33;3.83;;;1.98;;
41233;SDS011;26968;42.686;23.352;2022-07-19T12:31:00;8.30;;;2.38;;
41233;SDS011;26968;42.686;23.352;2022-07-19T12:33:29;6.05;;;2.10;;
41233;SDS011;26968;42.686;23.352;2022-07-19T12:35:54;7.43;;;1.77;;
41233;SDS011;26968;42.686;23.352;2022-07-19T12:38:26;9.43;;;1.90;;
41233;SDS011;26968;42.686;23.352;2022-07-19T12:41:04;5.60;;;2.00;;
41233;SDS011;26968;42.686;23.352;2022-07-19T12:43:33;5.28;;;1.88;;
41233;SDS011;26968;42.686;23.352;2022-07-19T12:45:59;4.05;;;2.00;;
41233;SDS011;26968;42.686;23.352;2022-07-19T12:48:28;5.30;;;1.90;;
41233;SDS011;26968;42.686;23.352;2022-07-19T12:50:54;6.43;;;1.70;;
41233;SDS011;26968;42.686;23.352;2022-07-19T12:53:20;3.88;;;1.55;;
41233;SDS011;26968;42.686;23.352;2022-07-19T12:55:47;3.90;;;2.15;;
41233;SDS011;26968;42.686;23.352;2022-07-19T12:58:14;10.90;;;2.53;;
41233;SDS011;26968;42.686;23.352;2022-07-19T13:01:00;4.28;;;1.90;;
41233;SDS011;26968;42.686;23.352;2022-07-19T13:03:25;5.38;;;1.90;;
41233;SDS011;26968;42.686;23.352;2022-07-19T13:05:51;3.85;;;1.65;;
41233;SDS011;26968;42.686;23.352;2022-07-19T13:08:16;4.20;;;2.10;;
41233;SDS011;26968;42.686;23.352;2022-07-19T13:10:41;3.78;;;1.90;;
41233;SDS011;26968;42.686;23.352;2022-07-19T13:13:08;2.67;;;1.55;;
41233;SDS011;26968;42.686;23.352;2022-07-19T13:15:34;5.90;;;1.80;;
41233;SDS011;26968;42.686;23.352;2022-07-19T13:18:00;7.38;;;2.30;;
41233;SDS011;26968;42.686;23.352;2022-07-19T13:20:25;7.30;;;2.28;;
41233;SDS011;26968;42.686;23.352;2022-07-19T13:22:52;5.70;;;1.80;;
41233;SDS011;26968;42.686;23.352;2022-07-19T13:25:17;3.78;;;1.88;;
41233;SDS011;26968;42.686;23.352;2022-07-19T13:27:43;2.95;;;1.80;;
41233;SDS011;26968;42.686;23.352;2022-07-19T13:30:09;3.75;;;1.80;;
41233;SDS011;26968;42.686;23.352;2022-07-19T13:32:35;7.93;;;1.85;;
41233;SDS011;26968;42.686;23.352;2022-07-19T13:35:01;7.50;;;1.73;;
41233;SDS011;26968;42.686;23.352;2022-07-19T13:37:26;5.97;;;1.90;;
41233;SDS011;26968;42.686;23.352;2022-07-19T13:39:52;4.60;;;2.03;;
41233;SDS011;26968;42.686;23.352;2022-07-19T13:42:17;3.03;;;1.50;;
41233;SDS011;26968;42.686;23.352;2022-07-19T13:44:43;6.85;;;1.80;;
41233;SDS011;26968;42.686;23.352;2022-07-19T13:47:08;8.40;;;1.67;;
41233;SDS011;26968;42.686;23.352;2022-07-19T13:49:33;3.60;;;1.60;;
41233;SDS011;26968;42.686;23.352;2022-07-19T13:51:59;7.18;;;2.20;;
41233;SDS011;26968;42.686;23.352;2022-07-19T13:54:24;6.60;;;1.40;;
41233;SDS011;26968;42.686;23.352;2022-07-19T13:56:50;3.80;;;1.58;;
41233;SDS011;26968;42.686;23.352;2022-07-19T13:59:15;1.90;;;1.48;;
41233;SDS011;26968;42.686;23.352;2022-07-19T14:01:41;2.58;;;1.52;;
41233;SDS011;26968;42.686;23.352;2022-07-19T14:04:06;5.65;;;1.65;;
41233;SDS011;26968;42.686;23.352;2022-07-19T14:06:32;6.85;;;1.73;;
41233;SDS011;26968;42.686;23.352;2022-07-19T14:08:57;7.40;;;1.85;;
41233;SDS011;26968;42.686;23.352;2022-07-19T14:11:23;4.72;;;1.60;;
41233;SDS011;26968;42.686;23.352;2022-07-19T14:13:48;3.47;;;1.60;;
41233;SDS011;26968;42.686;23.352;2022-07-19T14:16:14;3.13;;;1.70;;
41233;SDS011;26968;42.686;23.352;2022-07-19T14:18:40;5.35;;;1.80;;
41233;SDS011;26968;42.686;23.352;2022-07-19T14:21:05;5.97;;;2.22;;
41233;SDS011;26968;42.686;23.352;2022-07-19T14:23:31;2.75;;;1.40;;
41233;SDS011;26968;42.686;23.352;2022-07-19T14:25:57;6.78;;;1.75;;
41233;SDS011;26968;42.686;23.352;2022-07-19T14:28:23;5.57;;;1.70;;
41233;SDS011;26968;42.686;23.352;2022-07-19T14:30:48;7.18;;;1.30;;
41233;SDS011;26968;42.686;23.352;2022-07-19T14:33:14;7.35;;;1.60;;
41233;SDS011;26968;42.686;23.352;2022-07-19T14:35:40;8.45;;;1.45;;
41233;SDS011;26968;42.686;23.352;2022-07-19T14:38:05;6.07;;;1.70;;
41233;SDS011;26968;42.686;23.352;2022-07-19T14:40:31;3.95;;;1.60;;
41233;SDS011;26968;42.686;23.352;2022-07-19T14:42:56;4.93;;;1.45;;
41233;SDS011;26968;42.686;23.352;2022-07-19T14:45:22;5.53;;;1.40;;
41233;SDS011;26968;42.686;23.352;2022-07-19T14:47:48;2.67;;;1.20;;
41233;SDS011;26968;42.686;23.352;2022-07-19T14:50:13;4.68;;;1.58;;
41233;SDS011;26968;42.686;23.352;2022-07-19T14:52:39;4.57;;;1.80;;
41233;SDS011;26968;42.686;23.352;2022-07-19T14:55:06;5.20;;;1.45;;
41233;SDS011;26968;42.686;23.352;2022-07-19T14:57:33;4.55;;;1.60;;
41233;SDS011;26968;42.686;23.352;2022-07-19T14:59:59;3.13;;;1.60;;
41233;SDS011;26968;42.686;23.352;2022-07-19T15:02:24;5.72;;;1.50;;
41233;SDS011;26968;42.686;23.352;2022-07-19T15:04:50;5.25;;;1.88;;
41233;SDS011;26968;42.686;23.352;2022-07-19T15:07:15;5.85;;;1.70;;
41233;SDS011;26968;42.686;23.352;2022-07-19T15:09:41;7.38;;;1.50;;
41233;SDS011;26968;42.686;23.352;2022-07-19T15:12:07;3.92;;;1.50;;
41233;SDS011;26968;42.686;23.352;2022-07-19T15:14:32;4.47;;;1.50;;